createdAt,value
2023-08-26T00:02:20.482Z,6.88
2023-08-26T00:05:25.105Z,7.32
2023-08-26T00:08:28.038Z,7.15
2023-08-26T00:11:30.946Z,8.68
2023-08-26T00:14:34.187Z,8.77
2023-08-26T00:17:37.201Z,10.23
2023-08-26T00:20:42.604Z,9.57
2023-08-26T00:23:47.539Z,10.63
2023-08-26T00:26:50.520Z,8.52
2023-08-26T00:29:53.512Z,9.35
2023-08-26T00:32:56.490Z,9.90
2023-08-26T00:36:00.740Z,9.90
2023-08-26T00:39:03.942Z,9.73
2023-08-26T00:42:07.076Z,10.07
2023-08-26T00:45:10.607Z,10.07
2023-08-26T00:48:14.427Z,12.00
2023-08-26T00:51:20.448Z,12.07
2023-08-26T00:54:23.624Z,11.60
2023-08-26T00:57:26.873Z,10.23
2023-08-26T01:00:31.300Z,10.47
2023-08-26T01:03:35.805Z,10.07
2023-08-26T01:06:40.156Z,10.52
2023-08-26T01:09:43.091Z,11.38
2023-08-26T01:12:54.672Z,9.95
2023-08-26T01:15:59.813Z,10.70
2023-08-26T01:19:04.261Z,10.35
2023-08-26T01:22:09.880Z,10.68
2023-08-26T01:25:14.709Z,10.77
2023-08-26T01:28:17.911Z,10.93
2023-08-26T01:31:22.656Z,10.23
2023-08-26T01:34:31.134Z,9.27
2023-08-26T01:37:37.685Z,11.02
2023-08-26T01:40:45.578Z,10.80
2023-08-26T01:43:49.625Z,11.20
2023-08-26T01:49:55.504Z,10.13
2023-08-26T01:52:58.526Z,11.20
2023-08-26T01:56:02.946Z,10.50
2023-08-26T01:59:06.044Z,10.93
2023-08-26T02:02:09.322Z,10.93
2023-08-26T02:05:12.476Z,10.07
2023-08-26T02:08:15.541Z,10.73
2023-08-26T02:11:19.929Z,10.00
2023-08-26T02:14:23.047Z,9.98
2023-08-26T02:17:26.087Z,9.60
2023-08-26T02:20:29.299Z,10.55
2023-08-26T02:23:32.412Z,8.63
2023-08-26T02:26:38.850Z,9.70
2023-08-26T02:29:42.149Z,10.10
2023-08-26T02:32:45.154Z,11.77
2023-08-26T02:35:48.737Z,12.43
2023-08-26T02:38:52.032Z,14.15
2023-08-26T02:41:56.366Z,13.70
2023-08-26T02:44:59.355Z,13.80
2023-08-26T02:48:02.485Z,12.82
2023-08-26T02:51:05.543Z,14.17
2023-08-26T02:54:08.524Z,11.80
2023-08-26T02:57:12.853Z,11.45
2023-08-26T03:00:16.602Z,13.98
2023-08-26T03:03:20.185Z,13.77
2023-08-26T03:06:23.234Z,14.18
2023-08-26T03:09:27.113Z,13.90
2023-08-26T03:12:31.466Z,13.02
2023-08-26T03:15:34.551Z,14.77
2023-08-26T03:18:37.900Z,15.23
2023-08-26T03:21:41.309Z,14.57
2023-08-26T03:24:44.283Z,15.02
2023-08-26T03:27:48.734Z,13.63
2023-08-26T03:30:51.968Z,13.82
2023-08-26T03:33:55.098Z,13.60
2023-08-26T03:36:58.058Z,13.03
2023-08-26T03:40:06.656Z,13.15
2023-08-26T03:43:11.432Z,12.60
2023-08-26T03:46:15.204Z,12.20
2023-08-26T03:49:18.236Z,12.50
2023-08-26T03:52:21.311Z,11.18
2023-08-26T03:55:24.329Z,10.95
2023-08-26T03:58:28.746Z,12.38
2023-08-26T04:01:32.367Z,12.93
2023-08-26T04:04:35.479Z,10.52
2023-08-26T04:07:38.577Z,11.70
2023-08-26T04:10:41.792Z,10.20
2023-08-26T04:13:46.574Z,10.57
2023-08-26T04:16:49.665Z,11.32
2023-08-26T04:19:52.739Z,10.23
2023-08-26T04:22:55.795Z,11.17
2023-08-26T04:26:01.345Z,9.03
2023-08-26T04:29:05.857Z,9.80
2023-08-26T04:32:08.884Z,8.73
2023-08-26T04:35:11.870Z,8.50
2023-08-26T04:38:15.227Z,7.45
2023-08-26T04:41:19.039Z,6.75
2023-08-26T04:44:23.339Z,7.00
2023-08-26T04:47:26.874Z,7.88
2023-08-26T04:50:30.823Z,8.75
2023-08-26T04:56:39.026Z,6.82
2023-08-26T04:59:43.613Z,9.38
2023-08-26T05:02:47.415Z,10.20
2023-08-26T05:05:50.480Z,9.07
2023-08-26T05:08:53.481Z,10.48
2023-08-26T05:15:25.137Z,10.88
2023-08-26T05:18:28.406Z,10.20
2023-08-26T05:21:32.671Z,11.23
2023-08-26T05:24:35.657Z,10.32
2023-08-26T05:27:39.037Z,9.40
2023-08-26T05:30:43.453Z,9.57
2023-08-26T05:33:46.431Z,8.88
2023-08-26T05:36:49.464Z,8.30
2023-08-26T05:39:52.768Z,8.13
2023-08-26T05:42:56.836Z,9.33
2023-08-26T05:46:01.626Z,9.88
2023-08-26T05:49:04.951Z,8.88
2023-08-26T05:52:08.003Z,8.90
2023-08-26T05:55:12.345Z,8.37
2023-08-26T05:58:15.335Z,9.68
2023-08-26T06:01:25.571Z,9.65
2023-08-26T06:04:29.176Z,9.43
2023-08-26T06:07:44.104Z,10.85
2023-08-26T06:10:47.071Z,9.82
2023-08-26T06:14:08.450Z,8.75
2023-08-26T06:17:35.599Z,8.02
2023-08-26T06:20:58.905Z,8.95
2023-08-26T06:24:02.484Z,9.25
2023-08-26T06:27:07.188Z,6.93
2023-08-26T06:30:10.716Z,7.93
2023-08-26T06:33:20.296Z,7.20
2023-08-26T06:36:26.945Z,7.68
2023-08-26T06:39:29.913Z,7.90
2023-08-26T06:42:33.122Z,8.10
2023-08-26T06:45:36.156Z,6.73
2023-08-26T06:48:40.672Z,6.72
2023-08-26T06:51:43.613Z,6.32
2023-08-26T06:54:46.564Z,6.25
2023-08-26T06:57:49.605Z,5.45
2023-08-26T07:00:54.164Z,5.00
2023-08-26T07:04:06.107Z,4.43
2023-08-26T07:07:09.533Z,4.40
2023-08-26T07:10:13.976Z,4.45
2023-08-26T07:13:19.192Z,3.90
2023-08-26T07:16:22.310Z,4.38
2023-08-26T07:19:26.662Z,4.20
2023-08-26T07:22:30.486Z,4.05
2023-08-26T07:25:33.701Z,3.25
2023-08-26T07:28:36.698Z,3.07
2023-08-26T07:31:39.675Z,3.45
2023-08-26T07:34:44.128Z,3.83
2023-08-26T07:37:47.176Z,2.88
2023-08-26T07:40:50.164Z,3.83
2023-08-26T07:43:53.127Z,4.17
2023-08-26T07:46:57.837Z,3.78
2023-08-26T07:50:02.250Z,3.22
2023-08-26T07:53:28.841Z,3.70
2023-08-26T07:56:32.059Z,3.22
2023-08-26T07:59:35.274Z,3.40
2023-08-26T08:02:38.584Z,3.78
2023-08-26T08:05:41.544Z,4.03
2023-08-26T08:08:45.917Z,3.65
2023-08-26T08:11:49.122Z,3.92
2023-08-26T08:14:52.280Z,3.90
2023-08-26T08:17:57.063Z,4.10
2023-08-26T08:21:00.143Z,3.97
2023-08-26T08:24:04.710Z,3.97
2023-08-26T08:27:07.746Z,3.80
2023-08-26T08:30:11.566Z,3.73
2023-08-26T08:36:39.657Z,3.83
2023-08-26T08:39:42.660Z,4.03
2023-08-26T08:42:46.800Z,3.88
2023-08-26T08:45:51.796Z,4.05
2023-08-26T08:48:54.772Z,4.10
2023-08-26T08:51:59.958Z,3.95
2023-08-26T08:55:05.016Z,3.67
2023-08-26T08:58:09.332Z,4.35
2023-08-26T09:01:12.487Z,3.83
2023-08-26T09:04:15.976Z,3.57
2023-08-26T09:07:22.857Z,3.55
2023-08-26T09:10:27.233Z,3.40
2023-08-26T09:13:30.534Z,3.55
2023-08-26T09:16:36.921Z,3.40
2023-08-26T09:19:40.513Z,2.78
2023-08-26T09:22:45.128Z,2.85
2023-08-26T09:25:55.780Z,2.00
2023-08-26T09:28:58.805Z,1.90
2023-08-26T09:32:01.752Z,1.80
2023-08-26T09:35:12.074Z,1.77
2023-08-26T09:38:16.449Z,1.83
2023-08-26T09:41:22.679Z,1.83
2023-08-26T09:44:26.288Z,1.85
2023-08-26T09:47:30.957Z,1.52
2023-08-26T09:50:34.316Z,1.55
2023-08-26T09:53:39.584Z,1.52
2023-08-26T09:56:42.975Z,1.52
2023-08-26T09:59:46.073Z,1.33
2023-08-26T10:02:50.614Z,1.57
2023-08-26T10:05:56.372Z,1.50
2023-08-26T10:09:06.519Z,1.48
2023-08-26T10:12:22.024Z,1.25
2023-08-26T10:15:27.670Z,1.60
2023-08-26T10:18:36.548Z,3.03
2023-08-26T10:21:39.958Z,1.70
2023-08-26T10:24:45.854Z,1.45
2023-08-26T10:27:49.693Z,1.65
2023-08-26T10:34:02.718Z,1.60
2023-08-26T10:37:09.444Z,1.30
2023-08-26T10:40:14.795Z,1.48
2023-08-26T10:43:20.036Z,1.70
2023-08-26T10:46:36.298Z,1.50
2023-08-26T10:49:39.900Z,1.88
2023-08-26T10:52:43.869Z,1.40
2023-08-26T10:56:19.623Z,1.65
2023-08-26T10:59:36.052Z,1.30
2023-08-26T11:02:39.358Z,1.50
2023-08-26T11:05:44.323Z,1.30
2023-08-26T11:08:55.137Z,1.35
2023-08-26T11:11:59.662Z,1.20
2023-08-26T11:15:06.870Z,1.23
2023-08-26T11:18:11.718Z,1.00
2023-08-26T11:21:14.990Z,1.10
2023-08-26T11:24:19.260Z,0.60
2023-08-26T11:27:23.627Z,0.68
2023-08-26T11:30:26.746Z,0.60
2023-08-26T11:33:51.180Z,0.70
2023-08-26T11:36:55.034Z,0.40
2023-08-26T11:43:08.184Z,0.75
2023-08-26T11:46:12.053Z,0.68
2023-08-26T11:52:19.835Z,0.43
2023-08-26T11:55:29.231Z,0.40
2023-08-26T11:58:33.097Z,0.50
2023-08-26T12:05:01.573Z,0.68
2023-08-26T12:08:04.786Z,0.60
2023-08-26T12:11:07.828Z,0.43
2023-08-26T12:14:18.620Z,0.57
2023-08-26T12:17:21.618Z,0.47
2023-08-26T12:20:28.117Z,0.40
2023-08-26T12:23:31.231Z,0.40
2023-08-26T12:26:34.409Z,0.67
2023-08-26T12:29:39.394Z,0.20
2023-08-26T12:32:42.499Z,0.40
2023-08-26T12:35:48.096Z,0.40
2023-08-26T12:38:51.563Z,0.30
2023-08-26T12:41:55.083Z,0.47
2023-08-26T12:44:58.036Z,0.57
2023-08-26T12:48:01.695Z,0.37
2023-08-26T12:54:10.503Z,0.55
2023-08-26T12:57:13.853Z,0.37
2023-08-26T13:00:17.236Z,0.60
2023-08-26T13:03:21.364Z,0.65
2023-08-26T13:06:47.474Z,0.47
2023-08-26T13:09:50.546Z,0.40
2023-08-26T13:12:53.542Z,0.40
2023-08-26T13:15:57.631Z,0.40
2023-08-26T13:19:00.730Z,0.50
2023-08-26T13:22:05.117Z,0.33
2023-08-26T13:25:09.848Z,0.50
2023-08-26T13:28:12.864Z,0.68
2023-08-26T13:31:16.052Z,0.97
2023-08-26T13:34:19.057Z,0.60
2023-08-26T13:37:24.224Z,0.50
2023-08-26T13:40:27.274Z,0.45
2023-08-26T13:43:30.554Z,0.50
2023-08-26T13:46:33.576Z,0.65
2023-08-26T13:49:36.558Z,0.47
2023-08-26T13:52:41.116Z,0.40
2023-08-26T13:55:44.219Z,0.45
2023-08-26T13:58:47.441Z,0.70
2023-08-26T14:01:50.458Z,0.77
2023-08-26T14:04:53.551Z,0.57
2023-08-26T14:07:58.399Z,0.70
2023-08-26T14:11:02.092Z,0.70
2023-08-26T14:14:05.718Z,0.77
2023-08-26T14:17:09.638Z,0.68
2023-08-26T14:20:13.116Z,0.90
2023-08-26T14:23:38.151Z,0.82
2023-08-26T14:26:41.211Z,0.88
2023-08-26T14:29:44.799Z,1.10
2023-08-26T14:32:48.113Z,1.10
2023-08-26T14:35:52.344Z,1.03
2023-08-26T14:38:56.818Z,0.65
2023-08-26T14:41:59.865Z,0.77
2023-08-26T14:45:03.037Z,0.70
2023-08-26T14:48:06.600Z,0.70
2023-08-26T14:51:09.857Z,1.30
2023-08-26T14:54:14.209Z,0.90
2023-08-26T14:57:17.366Z,0.68
2023-08-26T15:00:20.410Z,0.90
2023-08-26T15:03:23.809Z,0.70
2023-08-26T15:06:27.377Z,0.90
2023-08-26T15:09:32.097Z,0.80
2023-08-26T15:12:38.358Z,0.85
2023-08-26T15:15:41.446Z,1.20
2023-08-26T15:18:44.468Z,1.10
2023-08-26T15:21:47.499Z,0.97
2023-08-26T15:24:51.812Z,0.77
2023-08-26T15:27:55.336Z,1.00
2023-08-26T15:30:58.794Z,1.08
2023-08-26T15:34:01.889Z,0.88
2023-08-26T15:37:05.124Z,0.87
2023-08-26T15:40:11.065Z,1.13
2023-08-26T15:43:14.047Z,1.30
2023-08-26T15:46:17.114Z,1.10
2023-08-26T15:49:20.773Z,0.90
2023-08-26T15:52:23.893Z,1.10
2023-08-26T15:55:28.529Z,0.80
2023-08-26T15:58:31.462Z,1.15
2023-08-26T16:03:14.558Z,1.08
2023-08-26T16:06:17.739Z,1.00
2023-08-26T16:09:21.061Z,1.23
2023-08-26T16:12:24.162Z,0.90
2023-08-26T16:15:27.458Z,0.90
2023-08-26T16:21:25.719Z,0.95
2023-08-26T16:24:28.688Z,0.95
2023-08-26T16:27:34.878Z,1.00
2023-08-26T16:30:38.132Z,1.17
2023-08-26T16:33:42.307Z,1.17
2023-08-26T16:36:46.664Z,0.85
2023-08-26T16:39:49.646Z,0.90
2023-08-26T16:42:52.664Z,0.80
2023-08-26T16:45:55.710Z,1.20
2023-08-26T16:48:58.736Z,1.00
2023-08-26T16:52:03.535Z,1.00
2023-08-26T16:55:07.192Z,1.02
2023-08-26T16:58:10.400Z,0.70
2023-08-26T17:01:13.487Z,0.87
2023-08-26T17:04:16.712Z,0.70
2023-08-26T17:07:21.275Z,1.20
2023-08-26T17:10:24.402Z,1.13
2023-08-26T17:13:27.434Z,1.23
2023-08-26T17:16:30.771Z,0.90
2023-08-26T17:19:33.855Z,0.90
2023-08-26T17:22:38.195Z,1.10
2023-08-26T17:25:41.456Z,0.90
2023-08-26T17:28:44.393Z,0.57
2023-08-26T17:31:47.466Z,0.75
2023-08-26T17:34:50.842Z,0.90
2023-08-26T17:37:55.565Z,1.00
2023-08-26T17:40:58.572Z,0.93
2023-08-26T17:44:01.547Z,0.80
2023-08-26T17:47:04.752Z,0.90
2023-08-26T17:50:09.226Z,1.03
2023-08-26T17:53:13.596Z,1.02
2023-08-26T17:56:16.793Z,1.10
2023-08-26T17:59:20.049Z,1.10
2023-08-26T18:02:23.115Z,0.90
2023-08-26T18:05:26.273Z,1.02
2023-08-26T18:08:30.699Z,1.10
2023-08-26T18:11:34.132Z,1.10
2023-08-26T18:14:37.167Z,1.35
2023-08-26T18:17:40.759Z,1.40
2023-08-26T18:20:45.230Z,1.02
2023-08-26T18:23:49.533Z,0.90
2023-08-26T18:26:52.480Z,0.68
2023-08-26T18:29:55.509Z,1.35
2023-08-26T18:32:59.030Z,1.05
2023-08-26T18:36:02.493Z,0.63
2023-08-26T18:39:07.347Z,1.35
2023-08-26T18:42:10.377Z,0.93
2023-08-26T18:45:14.113Z,1.00
2023-08-26T18:48:21.637Z,0.55
2023-08-26T18:51:24.633Z,1.10
2023-08-26T18:54:28.958Z,1.08
2023-08-26T18:57:34.061Z,1.35
2023-08-26T19:00:37.184Z,1.00
2023-08-26T19:04:12.312Z,1.30
2023-08-26T19:07:15.418Z,1.40
2023-08-26T19:10:18.894Z,1.17
2023-08-26T19:13:21.922Z,1.23
2023-08-26T19:16:24.909Z,1.30
2023-08-26T19:19:29.637Z,1.50
2023-08-26T19:22:32.679Z,1.52
2023-08-26T19:25:38.948Z,1.30
2023-08-26T19:28:41.963Z,1.70
2023-08-26T19:31:44.890Z,1.30
2023-08-26T19:34:49.291Z,1.45
2023-08-26T19:37:52.419Z,1.00
2023-08-26T19:40:57.708Z,1.08
2023-08-26T19:44:00.811Z,1.30
2023-08-26T19:47:03.991Z,0.93
2023-08-26T19:50:09.478Z,1.10
2023-08-26T19:53:13.053Z,1.33
2023-08-26T19:56:16.713Z,1.20
2023-08-26T19:59:19.802Z,1.15
2023-08-26T20:02:23.643Z,1.30
2023-08-26T20:05:28.248Z,1.23
2023-08-26T20:08:31.292Z,1.05
2023-08-26T20:11:34.373Z,1.00
2023-08-26T20:14:37.387Z,1.10
2023-08-26T20:17:41.163Z,1.00
2023-08-26T20:20:45.445Z,0.82
2023-08-26T20:23:48.474Z,1.10
2023-08-26T20:26:51.546Z,1.45
2023-08-26T20:29:54.606Z,0.90
2023-08-26T20:32:57.984Z,1.52
2023-08-26T20:36:03.957Z,1.52
2023-08-26T20:39:08.281Z,1.40
2023-08-26T20:45:14.226Z,1.33
2023-08-26T20:48:18.765Z,1.00
2023-08-26T20:51:23.412Z,1.30
2023-08-26T20:54:26.407Z,1.45
2023-08-26T20:57:29.459Z,1.60
2023-08-26T21:00:32.481Z,1.58
2023-08-26T21:03:35.923Z,1.38
2023-08-26T21:07:03.604Z,1.50
2023-08-26T21:10:08.168Z,1.45
2023-08-26T21:13:11.182Z,1.40
2023-08-26T21:16:14.262Z,1.70
2023-08-26T21:19:17.234Z,1.70
2023-08-26T21:22:21.817Z,1.40
2023-08-26T21:25:24.772Z,1.50
2023-08-26T21:28:30.116Z,1.50
2023-08-26T21:31:33.228Z,1.50
2023-08-26T21:34:36.220Z,1.90
2023-08-26T21:37:40.715Z,1.95
2023-08-26T21:40:44.560Z,1.95
2023-08-26T21:43:47.598Z,1.60
2023-08-26T21:46:50.617Z,1.30
2023-08-26T21:49:53.658Z,1.55
2023-08-26T21:52:58.165Z,1.65
2023-08-26T21:56:02.026Z,1.63
2023-08-26T21:59:05.580Z,1.45
2023-08-26T22:02:08.699Z,1.25
2023-08-26T22:05:11.736Z,1.60
2023-08-26T22:08:17.213Z,1.60
2023-08-26T22:11:20.313Z,1.65
2023-08-26T22:14:23.416Z,1.80
2023-08-26T22:17:28.093Z,1.70
2023-08-26T22:20:31.262Z,2.58
2023-08-26T22:23:37.481Z,2.05
2023-08-26T22:26:40.718Z,1.92
2023-08-26T22:29:43.738Z,2.10
2023-08-26T22:32:47.215Z,1.83
2023-08-26T22:35:50.322Z,1.67
2023-08-26T22:38:57.944Z,1.50
2023-08-26T22:42:04.810Z,1.90
2023-08-26T22:45:08.985Z,1.53
2023-08-26T22:51:14.791Z,1.20
2023-08-26T22:54:19.139Z,1.23
2023-08-26T22:57:22.554Z,1.52
2023-08-26T23:00:26.120Z,1.50
2023-08-26T23:03:29.118Z,1.98
2023-08-26T23:06:32.244Z,1.58
2023-08-26T23:09:36.807Z,1.60
2023-08-26T23:12:39.842Z,1.58
2023-08-26T23:15:42.873Z,1.45
2023-08-26T23:18:45.874Z,1.23
2023-08-26T23:21:50.364Z,1.42
2023-08-26T23:24:54.714Z,1.25
2023-08-26T23:27:57.646Z,1.70
2023-08-26T23:31:00.698Z,1.20
2023-08-26T23:34:16.053Z,1.48
2023-08-26T23:37:20.578Z,1.02
2023-08-26T23:40:24.865Z,1.08
2023-08-26T23:46:30.663Z,1.35
2023-08-26T23:49:33.690Z,1.73
2023-08-26T23:52:38.107Z,1.50
2023-08-26T23:55:42.364Z,1.35
